Time;durP1;ratioP1;P1;durP2;ratioP2;P2;SDS_P1;SDS_P2;PMS_P1;PMS_P2;Temp;Humidity;BMP_temperature;BMP_pressure;BME280_temperature;BME280_humidity;BME280_pressure;Samples;Min_cycle;Max_cycle;Signal;HPM_P1;HPM_P2
2023/09/13 00:02:14;;;;;;;140.82;132.98;;;;;;;27.48;48.58;101210.34;5032505;28;20059;-72
2023/09/13 00:04:39;;;;;;;141.50;134.93;;;;;;;27.46;48.39;101204.34;5025109;28;20041;-71
2023/09/13 00:07:05;;;;;;;136.20;129.90;;;;;;;27.45;48.50;101202.72;5032883;28;20041;-72
2023/09/13 00:09:30;;;;;;;140.63;134.10;;;;;;;27.43;48.51;101196.72;5042903;28;20103;-72
2023/09/13 00:11:56;;;;;;;136.90;130.50;;;;;;;27.41;48.74;101197.03;5046894;28;20040;-72
2023/09/13 00:14:21;;;;;;;134.52;128.32;;;;;;;27.39;48.58;101201.31;5031176;28;20386;-72
2023/09/13 00:16:46;;;;;;;136.15;129.80;;;;;;;27.38;48.85;101202.47;5052608;28;20527;-72
2023/09/13 00:19:12;;;;;;;130.52;124.53;;;;;;;27.37;48.54;101210.00;5041924;28;20037;-71
2023/09/13 00:21:40;;;;;;;143.70;136.85;;;;;;;27.35;48.39;101212.31;5036065;28;20116;-71
2023/09/13 00:24:07;;;;;;;133.70;127.20;;;;;;;27.33;48.51;101211.84;5063435;28;20037;-71
2023/09/13 00:26:33;;;;;;;140.82;134.32;;;;;;;27.32;48.63;101203.88;5037857;28;20021;-71
2023/09/13 00:28:58;;;;;;;132.88;126.75;;;;;;;27.30;48.49;101209.75;5031095;28;20108;-71
2023/09/13 00:31:24;;;;;;;133.55;127.43;;;;;;;27.30;48.62;101208.97;5035998;28;20041;-71
2023/09/13 00:33:49;;;;;;;140.73;134.05;;;;;;;27.28;48.45;101202.94;5030618;28;20041;-71
2023/09/13 00:36:15;;;;;;;140.05;133.63;;;;;;;27.26;48.43;101208.03;5029489;28;20056;-71
2023/09/13 00:38:40;;;;;;;133.40;127.28;;;;;;;27.24;48.66;101210.31;5031740;28;20044;-71
2023/09/13 00:41:06;;;;;;;133.30;127.07;;;;;;;27.22;48.70;101210.69;5029423;28;20511;-71
2023/09/13 00:43:31;;;;;;;135.43;129.30;;;;;;;27.21;48.58;101208.25;5030078;28;20037;-71
2023/09/13 00:45:57;;;;;;;138.90;132.40;;;;;;;27.19;48.57;101214.97;5036394;28;20041;-71
2023/09/13 00:48:23;;;;;;;131.82;125.60;;;;;;;27.19;48.54;101216.94;5043974;28;20040;-71
2023/09/13 00:50:50;;;;;;;134.75;128.45;;;;;;;27.17;48.77;101206.13;5029833;28;20076;-71
2023/09/13 00:53:17;;;;;;;131.85;125.45;;;;;;;27.16;48.63;101206.47;5027300;28;20087;-71
2023/09/13 00:55:43;;;;;;;134.15;127.85;;;;;;;27.14;48.50;101208.78;5036474;28;20038;-72
2023/09/13 00:58:11;;;;;;;138.20;131.70;;;;;;;27.13;48.48;101207.97;5030855;28;20033;-71
2023/09/13 01:00:36;;;;;;;135.10;128.80;;;;;;;27.11;48.74;101209.47;5034436;28;20049;-72
2023/09/13 01:03:05;;;;;;;133.65;127.22;;;;;;;27.10;48.68;101214.22;5028756;28;20448;-71
2023/09/13 01:05:31;;;;;;;138.85;132.15;;;;;;;27.08;48.50;101202.63;5032814;28;20037;-71
2023/09/13 01:07:56;;;;;;;131.38;124.72;;;;;;;27.06;48.85;101202.16;5032751;28;20124;-71
2023/09/13 01:10:22;;;;;;;136.73;130.13;;;;;;;27.06;48.69;101195.81;5032879;28;20049;-72
2023/09/13 01:12:47;;;;;;;136.38;129.90;;;;;;;27.04;48.64;101198.13;5040556;28;20061;-72
2023/09/13 01:15:14;;;;;;;132.55;126.30;;;;;;;27.03;48.52;101197.31;5049376;28;20053;-71
2023/09/13 01:18:02;;;;;;;132.80;126.47;;;;;;;26.99;48.39;101196.41;5029760;28;20068;-71
2023/09/13 01:21:02;;;;;;;133.82;127.30;;;;;;;26.96;48.58;101195.13;5030417;28;20037;-72
2023/09/13 01:24:04;;;;;;;135.48;128.88;;;;;;;26.92;48.84;101199.72;5022669;28;20037;-71
2023/09/13 01:27:24;;;;;;;137.43;130.73;;;;;;;26.87;48.74;101196.38;5040322;28;20021;-72
2023/09/13 01:29:51;;;;;;;138.75;131.75;;;;;;;26.88;48.75;101197.97;5012678;28;20116;-71
2023/09/13 01:32:16;;;;;;;131.77;125.13;;;;;;;26.87;48.84;101204.69;5028831;28;20124;-71
2023/09/13 01:34:42;;;;;;;132.65;126.15;;;;;;;26.87;48.98;101204.69;5029430;28;20041;-72
2023/09/13 01:37:07;;;;;;;137.05;129.95;;;;;;;26.86;48.58;101203.88;5026863;28;20056;-71
2023/09/13 01:39:33;;;;;;;133.73;126.82;;;;;;;26.86;48.74;101208.59;5035356;28;20120;-71
2023/09/13 01:42:05;;;;;;;128.70;122.63;;;;;;;26.85;48.81;101207.00;5040379;28;20186;-72
2023/09/13 01:44:32;;;;;;;131.07;124.65;;;;;;;26.83;48.73;101207.31;5028988;28;20488;-72
2023/09/13 01:46:59;;;;;;;134.10;127.68;;;;;;;26.82;48.66;101202.94;5031567;28;20379;-71
2023/09/13 01:49:26;;;;;;;133.70;127.00;;;;;;;26.81;48.74;101197.72;5025730;28;20038;-72
2023/09/13 01:51:52;;;;;;;132.38;125.72;;;;;;;26.79;48.67;101206.41;5043551;28;20029;-71
2023/09/13 01:54:18;;;;;;;137.65;131.05;;;;;;;26.79;48.74;101205.56;5045477;28;20234;-71
2023/09/13 01:56:44;;;;;;;131.57;124.82;;;;;;;26.77;48.56;101214.25;5034904;28;20033;-71
2023/09/13 01:59:09;;;;;;;135.85;128.70;;;;;;;26.75;48.70;101209.03;5032891;28;20025;-71
2023/09/13 02:01:35;;;;;;;136.40;129.40;;;;;;;26.73;48.67;101210.53;5043610;28;20037;-71
2023/09/13 02:04:00;;;;;;;141.93;134.75;;;;;;;26.72;48.77;101209.72;5022194;28;20049;-72
2023/09/13 02:06:25;;;;;;;135.50;128.52;;;;;;;26.71;48.55;101212.81;5016106;28;20038;-73
2023/09/13 02:08:51;;;;;;;135.30;128.60;;;;;;;26.70;48.56;101220.31;5034680;28;20120;-73
2023/09/13 02:11:16;;;;;;;137.35;130.63;;;;;;;26.69;48.68;101215.16;5030164;28;20033;-72
2023/09/13 02:13:42;;;;;;;132.55;125.18;;;;;;;26.67;48.62;101222.97;5049824;28;20039;-73
2023/09/13 02:16:07;;;;;;;129.27;122.78;;;;;;;26.66;48.73;101221.34;5036638;28;20077;-72
2023/09/13 02:18:33;;;;;;;129.73;123.22;;;;;;;26.64;48.58;101221.69;5039812;28;20133;-72
2023/09/13 02:20:58;;;;;;;135.18;128.18;;;;;;;26.64;48.81;101229.22;5039937;28;20033;-72
2023/09/13 02:23:24;;;;;;;134.63;127.80;;;;;;;26.61;48.85;101224.31;5039754;28;20041;-72
2023/09/13 02:25:49;;;;;;;128.60;122.15;;;;;;;26.59;48.78;101227.47;5054617;28;20041;-72
2023/09/13 02:28:15;;;;;;;132.95;125.90;;;;;;;26.59;48.52;101226.66;5033558;28;20076;-73
2023/09/13 02:30:40;;;;;;;131.52;124.63;;;;;;;26.58;48.71;101236.09;5054563;28;20056;-73
2023/09/13 02:33:06;;;;;;;130.25;123.45;;;;;;;26.55;48.49;101235.63;5043937;28;20088;-73
2023/09/13 02:35:33;;;;;;;134.00;126.78;;;;;;;26.54;48.73;101242.31;5025708;28;20042;-72
2023/09/13 02:37:59;;;;;;;132.45;125.45;;;;;;;26.54;48.73;101238.75;5039017;28;20532;-72
2023/09/13 02:40:24;;;;;;;127.15;120.55;;;;;;;26.52;48.86;101239.06;5045157;28;20036;-73
2023/09/13 02:42:50;;;;;;;130.07;123.03;;;;;;;26.49;48.72;101236.97;5040239;28;20042;-73
2023/09/13 02:45:16;;;;;;;132.88;126.07;;;;;;;26.48;48.62;101237.28;5033277;28;20041;-72
2023/09/13 02:47:43;;;;;;;130.80;124.03;;;;;;;26.48;48.61;101240.06;5042116;28;20376;-72
2023/09/13 02:50:09;;;;;;;130.07;123.05;;;;;;;26.46;48.68;101236.81;5043793;28;20036;-72
2023/09/13 02:52:34;;;;;;;131.05;124.13;;;;;;;26.43;48.80;101238.28;5047847;28;20079;-73
2023/09/13 02:55:01;;;;;;;130.88;124.32;;;;;;;26.44;48.89;101241.91;5032318;28;20458;-73
2023/09/13 02:57:27;;;;;;;127.80;120.90;;;;;;;26.41;48.81;101242.56;5036316;28;20366;-73
2023/09/13 02:59:53;;;;;;;126.00;119.60;;;;;;;26.40;48.67;101246.47;5051201;28;20033;-72
2023/09/13 03:02:18;;;;;;;131.75;124.50;;;;;;;26.38;48.74;101249.56;5047459;28;20041;-73
2023/09/13 03:04:44;;;;;;;130.73;123.70;;;;;;;26.37;48.72;101245.19;5027518;28;20064;-71
2023/09/13 03:07:09;;;;;;;129.90;123.45;;;;;;;26.36;48.54;101253.84;5047579;28;20033;-72
2023/09/13 03:09:35;;;;;;;130.88;124.28;;;;;;;26.33;48.71;101249.78;5042028;28;20038;-73
2023/09/13 03:12:01;;;;;;;131.70;124.53;;;;;;;26.31;48.76;101252.09;5038233;28;20076;-72
2023/09/13 03:14:28;;;;;;;128.13;121.40;;;;;;;26.30;48.80;101254.03;5053074;28;20092;-72
2023/09/13 03:16:53;;;;;;;132.35;125.38;;;;;;;26.29;48.73;101249.66;5041295;28;20055;-72
2023/09/13 03:19:19;;;;;;;129.15;122.20;;;;;;;26.27;48.71;101260.25;5042013;28;20526;-73
2023/09/13 03:21:44;;;;;;;131.40;124.43;;;;;;;26.25;48.60;101247.91;5044124;28;20037;-73
2023/09/13 03:24:10;;;;;;;127.70;120.95;;;;;;;26.24;48.60;101249.06;5033805;28;20099;-73
2023/09/13 03:26:35;;;;;;;131.77;125.07;;;;;;;26.22;48.48;101254.91;5026762;28;20048;-72
2023/09/13 03:29:01;;;;;;;128.15;121.32;;;;;;;26.21;48.70;101250.53;5038246;28;20041;-72
2023/09/13 03:31:27;;;;;;;127.50;121.05;;;;;;;26.20;48.49;101248.09;5069411;28;20094;-72
2023/09/13 03:33:54;;;;;;;134.77;127.93;;;;;;;26.18;48.69;101256.72;5034926;28;20500;-73
2023/09/13 03:36:20;;;;;;;128.02;121.13;;;;;;;26.16;48.66;101260.97;5040146;28;20163;-72
2023/09/13 03:38:49;;;;;;;130.60;123.72;;;;;;;26.15;48.95;101264.91;5031628;28;20408;-72
2023/09/13 03:41:17;;;;;;;127.07;120.70;;;;;;;26.12;48.69;101261.66;5048519;28;20420;-73
2023/09/13 03:43:42;;;;;;;125.78;119.53;;;;;;;26.11;48.75;101265.59;5050195;28;20495;-72
2023/09/13 03:46:08;;;;;;;127.25;120.68;;;;;;;26.10;48.67;101271.44;5053194;28;20519;-73
2023/09/13 03:48:35;;;;;;;127.28;120.90;;;;;;;26.09;48.96;101264.31;5037325;28;20042;-72
2023/09/13 03:51:01;;;;;;;122.82;116.55;;;;;;;26.07;48.82;101264.63;5036978;28;20389;-73
2023/09/13 03:53:27;;;;;;;131.20;124.50;;;;;;;26.05;48.73;101266.91;5049575;28;20044;-73
2023/09/13 03:55:53;;;;;;;125.32;118.70;;;;;;;26.05;48.74;101268.88;5052418;28;20036;-71
2023/09/13 03:58:18;;;;;;;128.55;121.85;;;;;;;26.04;48.91;101261.72;5039325;28;20033;-72
2023/09/13 04:00:44;;;;;;;126.72;119.88;;;;;;;26.03;48.83;101260.09;5042899;28;20028;-73
2023/09/13 04:03:11;;;;;;;125.72;118.97;;;;;;;26.01;48.72;101257.66;5040913;28;20041;-73
2023/09/13 04:05:37;;;;;;;122.63;116.43;;;;;;;26.00;48.87;101261.56;5033466;28;20108;-72
2023/09/13 04:08:03;;;;;;;127.10;120.70;;;;;;;25.99;48.62;101259.16;5045623;28;20183;-74
2023/09/13 04:10:28;;;;;;;127.72;120.28;;;;;;;25.98;48.88;101257.50;5033485;28;20044;-74
2023/09/13 04:12:54;;;;;;;126.10;119.38;;;;;;;25.97;48.65;101255.91;5046116;28;20033;-73
2023/09/13 04:15:19;;;;;;;124.70;118.10;;;;;;;25.95;48.58;101263.72;5051857;28;20489;-72
2023/09/13 04:17:45;;;;;;;124.10;117.57;;;;;;;25.94;48.61;101256.56;5044731;28;20057;-72
2023/09/13 04:20:11;;;;;;;122.38;115.93;;;;;;;25.93;48.93;101263.25;5037224;28;20029;-73
2023/09/13 04:22:36;;;;;;;124.32;117.53;;;;;;;25.91;48.94;101260.81;5047563;28;20481;-73
2023/09/13 04:25:04;;;;;;;123.10;116.55;;;;;;;25.90;48.93;101262.78;5047276;28;20025;-72
2023/09/13 04:27:30;;;;;;;126.63;120.03;;;;;;;25.87;48.88;101254.31;5046169;28;20044;-73
2023/09/13 04:29:55;;;;;;;127.13;120.57;;;;;;;25.88;48.65;101255.97;5043267;28;20025;-72
2023/09/13 04:32:21;;;;;;;125.53;118.75;;;;;;;25.87;48.98;101262.63;5030557;28;20116;-73
2023/09/13 04:34:47;;;;;;;124.28;117.78;;;;;;;25.85;48.89;101264.91;5035088;28;20065;-73
2023/09/13 04:37:13;;;;;;;124.32;117.50;;;;;;;25.84;48.77;101266.03;5028161;28;20500;-72
2023/09/13 04:39:38;;;;;;;126.22;119.80;;;;;;;25.82;48.95;101260.81;5030495;28;21139;-73
2023/09/13 04:42:06;;;;;;;123.85;117.07;;;;;;;25.81;48.81;101264.75;5032180;28;20520;-73
2023/09/13 04:44:31;;;;;;;125.75;119.20;;;;;;;25.79;48.66;101261.50;5030445;28;20496;-73
2023/09/13 04:46:57;;;;;;;123.05;116.50;;;;;;;25.79;48.88;101255.97;5066788;28;20025;-73
2023/09/13 04:49:24;;;;;;;125.28;118.63;;;;;;;25.78;48.69;101267.34;5030797;28;20033;-73
2023/09/13 04:51:49;;;;;;;125.05;118.45;;;;;;;25.77;48.73;101266.56;5038246;28;20185;-72
2023/09/13 04:54:15;;;;;;;123.18;116.80;;;;;;;25.75;49.01;101260.53;5031044;28;20750;-73
2023/09/13 04:56:40;;;;;;;125.20;118.22;;;;;;;25.74;48.91;101261.69;5031699;28;20083;-71
2023/09/13 04:59:06;;;;;;;132.40;125.75;;;;;;;25.74;48.68;101264.47;5033865;28;20057;-72
2023/09/13 05:01:31;;;;;;;122.97;116.32;;;;;;;25.73;48.73;101264.78;5031832;28;20044;-73
2023/09/13 05:03:58;;;;;;;123.72;117.32;;;;;;;25.72;48.60;101263.16;5029659;28;20056;-72
2023/09/13 05:06:23;;;;;;;122.07;115.85;;;;;;;25.69;48.98;101268.22;5032424;28;20044;-72
2023/09/13 05:08:53;;;;;;;124.18;117.72;;;;;;;25.69;49.00;101270.19;5037612;28;20037;-72
2023/09/13 05:11:21;;;;;;;121.65;115.50;;;;;;;25.67;48.81;101270.50;5035760;28;20037;-73
2023/09/13 05:13:47;;;;;;;119.28;113.07;;;;;;;25.66;48.52;101270.84;5032006;28;20037;-74
2023/09/13 05:16:19;;;;;;;123.03;116.70;;;;;;;25.66;48.64;101268.09;5031483;28;20045;-71
2023/09/13 05:18:48;;;;;;;124.30;118.25;;;;;;;25.65;48.84;101271.97;5032338;28;20632;-73
2023/09/13 05:21:13;;;;;;;124.82;118.03;;;;;;;25.63;48.76;101268.75;5035354;28;20052;-72
2023/09/13 05:23:39;;;;;;;123.07;116.38;;;;;;;25.61;48.80;101277.38;5030211;28;20316;-75
2023/09/13 05:26:04;;;;;;;123.68;117.10;;;;;;;25.60;48.92;101280.47;5033725;28;20033;-73
2023/09/13 05:28:34;;;;;;;121.88;115.20;;;;;;;25.59;49.10;101287.16;5036660;28;20140;-73
2023/09/13 05:31:05;;;;;;;121.85;115.47;;;;;;;25.58;48.79;101278.03;5034482;28;20043;-74
2023/09/13 05:33:31;;;;;;;126.13;119.60;;;;;;;25.57;48.99;101284.69;5032178;28;20033;-73
2023/09/13 05:35:56;;;;;;;124.85;118.15;;;;;;;25.56;48.86;101285.84;5027989;28;20119;-76
2023/09/13 05:38:21;;;;;;;122.57;115.72;;;;;;;25.55;48.88;101283.41;5026687;28;20049;-73
2023/09/13 05:40:47;;;;;;;124.07;116.88;;;;;;;25.54;48.95;101287.34;5028859;28;20029;-73
2023/09/13 05:43:13;;;;;;;122.90;116.40;;;;;;;25.53;48.90;101291.22;5028620;28;20040;-74
2023/09/13 05:45:40;;;;;;;122.78;116.30;;;;;;;25.54;48.90;101299.19;5027683;28;20045;-74
2023/09/13 05:48:05;;;;;;;121.95;115.78;;;;;;;25.52;48.65;101295.13;5027797;28;20048;-73
2023/09/13 05:50:31;;;;;;;121.78;115.57;;;;;;;25.51;48.77;101301.81;5029594;28;20037;-74
2023/09/13 05:52:56;;;;;;;123.40;116.93;;;;;;;25.48;48.93;101309.63;5033215;28;20485;-75
2023/09/13 05:55:22;;;;;;;121.90;115.50;;;;;;;25.48;49.24;101306.06;5026024;28;20037;-74
2023/09/13 05:57:49;;;;;;;119.07;112.90;;;;;;;25.47;48.92;101304.44;5033836;28;20570;-74
2023/09/13 06:00:15;;;;;;;122.43;116.15;;;;;;;25.47;48.90;101321.03;5036218;28;20064;-72
2023/09/13 06:02:40;;;;;;;120.15;114.05;;;;;;;25.45;48.97;101318.59;5032868;28;20065;-73
2023/09/13 06:05:06;;;;;;;119.90;113.63;;;;;;;25.44;48.85;101316.97;5011047;28;20060;-73
2023/09/13 06:07:31;;;;;;;118.50;112.60;;;;;;;25.44;48.79;101339.09;5064561;28;20037;-74
2023/09/13 06:09:58;;;;;;;120.72;114.65;;;;;;;25.43;49.02;101336.66;5035381;28;20049;-74
2023/09/13 06:12:25;;;;;;;117.68;111.10;;;;;;;25.41;48.76;101342.53;5035214;28;20386;-74
2023/09/13 06:14:53;;;;;;;118.55;112.40;;;;;;;25.40;48.71;101338.13;5027252;28;20138;-73
2023/09/13 06:17:18;;;;;;;;;;;;;;;25.36;49.21;101348.22;5034941;28;20442;-73
2023/09/13 06:19:44;;;;;;;119.50;113.50;;;;;;;25.37;48.72;101352.59;5023236;28;20357;-74
2023/09/13 06:22:09;;;;;;;122.40;116.15;;;;;;;25.35;49.01;101363.19;5033617;28;20037;-75
2023/09/13 06:24:35;;;;;;;117.30;111.18;;;;;;;25.35;48.88;101362.38;5030448;28;20080;-76
2023/09/13 06:27:00;;;;;;;127.43;120.97;;;;;;;25.34;48.99;101366.28;5025598;28;20476;-74
2023/09/13 06:29:26;;;;;;;121.40;115.18;;;;;;;25.34;49.14;101364.31;5030666;28;20033;-74
2023/09/13 06:31:54;;;;;;;122.07;115.65;;;;;;;25.33;49.02;101370.19;5028464;28;20029;-75
2023/09/13 06:34:20;;;;;;;116.93;110.57;;;;;;;25.32;48.90;101365.78;5025682;28;20133;-74
2023/09/13 06:36:48;;;;;;;120.32;113.57;;;;;;;25.31;48.76;101376.06;5033702;28;20056;-74
2023/09/13 06:39:14;;;;;;;120.50;114.50;;;;;;;25.30;48.98;101370.84;5028841;28;20122;-74
2023/09/13 06:41:39;;;;;;;118.85;112.53;;;;;;;25.29;49.09;101372.78;5031733;28;20033;-75
2023/09/13 06:44:09;;;;;;;120.65;114.55;;;;;;;25.29;48.88;101371.97;5029733;28;20044;-75
2023/09/13 06:46:35;;;;;;;121.35;114.93;;;;;;;25.28;48.74;101378.66;5028203;28;20183;-76
2023/09/13 06:49:01;;;;;;;122.05;115.82;;;;;;;25.27;48.79;101377.84;5026468;28;20139;-74
2023/09/13 06:51:26;;;;;;;117.47;111.30;;;;;;;25.26;49.16;101376.22;5031667;28;20108;-76
2023/09/13 06:53:51;;;;;;;117.15;111.40;;;;;;;25.25;48.95;101383.72;5035335;28;20118;-75
2023/09/13 06:56:17;;;;;;;120.78;114.38;;;;;;;25.24;49.05;101379.31;5032746;28;20033;-73
2023/09/13 06:58:42;;;;;;;120.18;113.47;;;;;;;25.25;49.19;101385.66;5028439;28;20486;-74
2023/09/13 07:01:08;;;;;;;122.55;116.20;;;;;;;25.23;49.16;101382.41;5030576;28;20030;-75
2023/09/13 07:03:33;;;;;;;121.70;114.88;;;;;;;25.23;49.17;101391.50;5033923;28;20508;-74
2023/09/13 07:05:58;;;;;;;116.55;110.55;;;;;;;25.21;49.20;101399.31;5028829;28;20046;-75
2023/09/13 07:08:24;;;;;;;116.93;110.82;;;;;;;25.21;48.86;101406.78;5034270;28;20055;-74
2023/09/13 07:10:49;;;;;;;120.28;113.47;;;;;;;25.20;49.26;101407.91;5012433;28;20408;-75
2023/09/13 07:13:15;;;;;;;121.70;115.10;;;;;;;25.19;49.25;101406.31;5034479;28;20070;-75
2023/09/13 07:15:40;;;;;;;120.72;114.07;;;;;;;25.19;49.09;101428.41;5031739;28;20517;-75
2023/09/13 07:18:05;;;;;;;122.85;116.30;;;;;;;25.18;49.15;101424.03;5034988;28;20131;-74
2023/09/13 07:20:31;;;;;;;120.47;113.97;;;;;;;25.17;49.25;101434.25;5028637;28;20144;-75
2023/09/13 07:22:56;;;;;;;121.03;114.72;;;;;;;25.16;49.27;101438.19;5032570;28;20120;-75
2023/09/13 07:25:22;;;;;;;117.28;111.00;;;;;;;25.15;49.17;101444.84;5032879;28;20831;-74
2023/09/13 07:27:47;;;;;;;119.70;113.30;;;;;;;25.14;49.22;101445.94;5041761;28;20045;-72
2023/09/13 07:30:12;;;;;;;113.82;108.25;;;;;;;25.14;49.31;101445.94;5032384;28;20172;-74
2023/09/13 07:32:38;;;;;;;118.88;112.78;;;;;;;25.14;49.53;101448.72;5026293;28;20040;-74
2023/09/13 07:35:04;;;;;;;115.05;109.25;;;;;;;25.13;49.34;101449.88;5025874;28;20072;-74
2023/09/13 07:37:31;;;;;;;124.05;117.35;;;;;;;25.13;49.54;101460.13;5028562;28;20044;-75
2023/09/13 07:39:57;;;;;;;113.22;107.63;;;;;;;25.13;49.42;101460.13;5022592;28;20037;-75
2023/09/13 07:42:23;;;;;;;116.50;110.53;;;;;;;25.12;49.14;101467.56;5022848;28;20033;-73
2023/09/13 07:44:49;;;;;;;117.53;111.68;;;;;;;25.12;49.39;101464.00;5031309;28;20053;-75
2023/09/13 07:47:14;;;;;;;113.30;107.85;;;;;;;25.10;49.34;101467.09;5028905;28;20037;-74
2023/09/13 07:49:39;;;;;;;111.85;106.43;;;;;;;25.11;49.52;101473.44;5032968;28;20410;-76
2023/09/13 07:52:05;;;;;;;111.68;106.38;;;;;;;25.09;49.51;101482.03;5035444;28;20045;-74
2023/09/13 07:54:31;;;;;;;112.85;107.47;;;;;;;25.10;49.32;101482.84;5026350;28;20029;-73
2023/09/13 07:56:56;;;;;;;112.70;107.22;;;;;;;25.09;49.52;101489.53;5025628;28;20053;-75
2023/09/13 07:59:22;;;;;;;113.20;107.45;;;;;;;25.08;49.59;101496.22;5030825;28;20049;-74
2023/09/13 08:01:48;;;;;;;111.25;106.28;;;;;;;25.07;49.59;101500.09;5024216;28;20122;-75
2023/09/13 08:04:13;;;;;;;110.82;105.80;;;;;;;25.07;49.50;101503.66;5026133;28;20063;-75
2023/09/13 08:06:41;;;;;;;111.15;105.95;;;;;;;25.07;49.59;101505.63;5026480;28;20074;-74
2023/09/13 08:09:07;;;;;;;116.70;110.90;;;;;;;25.05;49.46;101504.00;5024419;28;20057;-74
2023/09/13 08:11:33;;;;;;;109.22;104.13;;;;;;;25.06;49.60;101513.09;5027189;28;20300;-74
2023/09/13 08:13:58;;;;;;;107.28;102.43;;;;;;;25.05;49.45;101515.06;5027840;28;20519;-74
2023/09/13 08:16:24;;;;;;;113.78;108.78;;;;;;;25.04;49.00;101515.38;5027244;28;20128;-74
2023/09/13 08:18:49;;;;;;;110.30;105.35;;;;;;;25.04;49.04;101523.66;5025457;28;20025;-74
2023/09/13 08:21:14;;;;;;;107.82;103.03;;;;;;;25.02;49.37;101517.63;5027178;28;20046;-73
2023/09/13 08:23:40;;;;;;;108.65;103.90;;;;;;;25.01;49.31;101525.13;5028509;28;20531;-74
2023/09/13 08:26:05;;;;;;;108.13;103.32;;;;;;;25.00;49.30;101531.00;5018583;28;20033;-74
2023/09/13 08:28:31;;;;;;;111.32;106.32;;;;;;;24.99;49.25;101546.72;5026925;28;20033;-73
2023/09/13 08:30:56;;;;;;;112.32;107.38;;;;;;;24.99;49.19;101548.69;5018454;28;20443;-74
2023/09/13 08:33:22;;;;;;;107.80;103.00;;;;;;;24.97;49.27;101553.72;5008119;28;20041;-73
2023/09/13 08:35:47;;;;;;;112.55;107.47;;;;;;;24.96;49.62;101563.97;5022430;28;20098;-73
2023/09/13 08:38:13;;;;;;;108.85;104.05;;;;;;;24.97;49.10;101575.84;5024266;28;20044;-73
2023/09/13 08:40:46;;;;;;;114.57;109.40;;;;;;;24.95;49.34;101575.34;5029617;28;20112;-73
2023/09/13 08:43:12;;;;;;;109.40;104.55;;;;;;;24.96;49.40;101583.31;5026265;28;20072;-74
2023/09/13 08:45:38;;;;;;;106.25;101.65;;;;;;;24.96;49.10;101586.06;5026972;28;20125;-74
2023/09/13 08:48:07;;;;;;;110.72;105.85;;;;;;;24.96;49.16;101593.56;5028974;28;20408;-74
2023/09/13 08:50:34;;;;;;;107.95;103.18;;;;;;;24.94;49.11;101602.16;5024839;28;20040;-73
2023/09/13 08:53:02;;;;;;;106.93;102.22;;;;;;;24.94;49.20;101601.34;5025503;28;20040;-73
2023/09/13 08:55:29;;;;;;;105.97;101.28;;;;;;;24.94;49.20;101609.63;5021923;28;20037;-73
2023/09/13 08:57:56;;;;;;;106.28;101.65;;;;;;;24.92;49.34;101607.22;5027221;28;20500;-74
2023/09/13 09:00:25;;;;;;;106.50;101.90;;;;;;;24.93;49.09;101616.31;5031014;28;20393;-74
2023/09/13 09:02:54;;;;;;;108.53;103.78;;;;;;;24.92;49.23;101626.56;5025063;28;20060;-74
2023/09/13 09:05:25;;;;;;;107.30;102.70;;;;;;;24.91;49.25;101629.63;5024696;28;20053;-73
2023/09/13 09:07:52;;;;;;;107.40;102.60;;;;;;;24.91;49.16;101637.91;5023331;28;20064;-73
2023/09/13 09:10:18;;;;;;;110.40;105.43;;;;;;;24.89;49.38;101640.19;5022910;28;20549;-74
2023/09/13 09:12:48;;;;;;;107.60;102.90;;;;;;;24.89;49.30;101643.75;5030125;28;20484;-73
2023/09/13 09:15:16;;;;;;;115.97;110.68;;;;;;;24.88;49.20;101641.31;5026006;28;20055;-74
2023/09/13 09:17:46;;;;;;;105.05;100.40;;;;;;;24.89;49.58;101638.22;5024807;28;20033;-73
2023/09/13 09:20:12;;;;;;;107.30;102.47;;;;;;;24.88;49.34;101642.13;5022271;28;20168;-73
2023/09/13 09:22:38;;;;;;;106.32;101.68;;;;;;;24.88;49.03;101646.84;5030528;28;20108;-73
2023/09/13 09:25:10;;;;;;;108.68;103.95;;;;;;;24.87;49.46;101648.78;5024491;28;20040;-74
2023/09/13 09:27:37;;;;;;;109.60;104.90;;;;;;;24.86;49.54;101657.41;5026500;28;20026;-73
2023/09/13 09:30:03;;;;;;;109.15;104.25;;;;;;;24.86;49.10;101665.69;5027180;28;20087;-73
2023/09/13 09:32:29;;;;;;;107.00;102.40;;;;;;;24.86;49.03;101662.94;5023531;28;20037;-74
2023/09/13 09:34:59;;;;;;;111.53;106.32;;;;;;;24.86;49.06;101665.69;5024295;28;20034;-74
2023/09/13 09:37:32;;;;;;;105.18;100.57;;;;;;;24.84;49.53;101669.56;5036334;28;20145;-75
2023/09/13 09:39:58;;;;;;;107.65;103.05;;;;;;;24.83;49.36;101656.91;5044191;28;20089;-73
2023/09/13 09:42:23;;;;;;;106.85;102.25;;;;;;;24.83;49.54;101658.84;5026350;28;20037;-73
2023/09/13 09:44:49;;;;;;;106.38;101.57;;;;;;;24.84;49.51;101663.25;5026584;28;20456;-74
2023/09/13 09:47:15;;;;;;;108.07;103.28;;;;;;;24.84;49.18;101652.19;5026001;28;20037;-74
2023/09/13 09:49:44;;;;;;;105.65;101.05;;;;;;;24.84;49.33;101666.81;5025134;28;20095;-74
2023/09/13 09:52:10;;;;;;;106.47;101.88;;;;;;;24.85;49.50;101670.41;5025730;28;20160;-74
2023/09/13 09:54:37;;;;;;;107.63;102.93;;;;;;;24.84;49.15;101668.75;5027514;28;20064;-75
2023/09/13 09:57:02;;;;;;;106.05;101.28;;;;;;;24.86;48.99;101680.31;5025702;28;20590;-74
2023/09/13 09:59:29;;;;;;;106.10;101.53;;;;;;;24.85;49.28;101678.69;5022353;28;20038;-74
2023/09/13 10:01:58;;;;;;;110.55;105.50;;;;;;;24.84;49.13;101683.38;5023146;28;20159;-75
2023/09/13 10:04:23;;;;;;;109.57;104.70;;;;;;;24.84;49.20;101682.59;5040731;28;20048;-76
2023/09/13 10:06:57;;;;;;;108.20;103.55;;;;;;;24.84;49.29;101685.34;5027135;28;20125;-74
2023/09/13 10:09:22;;;;;;;107.95;103.30;;;;;;;24.86;49.07;101699.66;5025596;28;20060;-73
2023/09/13 10:11:55;;;;;;;107.20;102.60;;;;;;;24.86;48.95;101699.66;5028093;28;20393;-73
2023/09/13 10:14:26;;;;;;;106.05;101.47;;;;;;;24.87;48.83;101694.94;5025544;28;20057;-73
2023/09/13 10:16:53;;;;;;;103.82;99.28;;;;;;;24.87;48.91;101700.47;5026100;28;20057;-74
2023/09/13 10:19:22;;;;;;;103.72;99.22;;;;;;;24.87;48.92;101712.34;5030907;28;20878;-74
2023/09/13 10:21:50;;;;;;;106.53;101.88;;;;;;;24.86;48.97;101705.19;5025879;28;20040;-74
2023/09/13 10:24:20;;;;;;;105.55;100.95;;;;;;;24.88;49.18;101713.19;5028760;28;20045;-72
2023/09/13 10:26:49;;;;;;;105.57;100.97;;;;;;;24.87;48.97;101706.81;5030991;28;20041;-74
2023/09/13 10:29:39;;;;;;;104.40;99.70;;;;;;;24.84;48.79;101716.56;5025767;28;20974;-74
2023/09/13 10:32:09;;;;;;;106.50;101.70;;;;;;;24.87;48.68;101723.38;5021557;28;20034;-73
2023/09/13 10:34:37;;;;;;;103.07;98.57;;;;;;;24.87;48.95;101733.63;5024449;28;20136;-74
2023/09/13 10:37:09;;;;;;;106.30;101.65;;;;;;;24.87;49.17;101734.44;5022970;28;20060;-73
2023/09/13 10:39:43;;;;;;;104.82;100.18;;;;;;;24.87;48.77;101726.16;5022511;28;20398;-74
2023/09/13 10:42:12;;;;;;;109.18;104.38;;;;;;;24.87;48.89;101723.38;5024137;28;20033;-74
2023/09/13 10:44:38;;;;;;;106.03;101.50;;;;;;;24.88;49.05;101732.53;5026737;28;20041;-74
2023/09/13 10:47:05;;;;;;;107.18;102.30;;;;;;;24.87;48.70;101733.63;5034350;28;20056;-74
2023/09/13 10:49:30;;;;;;;108.97;104.28;;;;;;;24.87;48.93;101739.97;5033392;28;20128;-75
2023/09/13 10:51:56;;;;;;;107.65;102.95;;;;;;;24.87;48.99;101745.50;5025818;28;20144;-74
2023/09/13 10:54:24;;;;;;;106.57;101.93;;;;;;;24.89;49.04;101745.19;5027893;28;20029;-74